sensor_id;sensor_type;location;lat;lon;timestamp;temperature;humidity
73939;DHT22;62291;47.554;8.504;2022-09-09T00:02:18;12.30;99.90
73939;DHT22;62291;47.554;8.504;2022-09-09T00:07:51;12.50;99.90
73939;DHT22;62291;47.554;8.504;2022-09-09T00:10:34;12.50;99.90
73939;DHT22;62291;47.554;8.504;2022-09-09T00:13:45;12.60;99.90
73939;DHT22;62291;47.554;8.504;2022-09-09T00:16:32;12.70;99.90
73939;DHT22;62291;47.554;8.504;2022-09-09T00:24:26;12.80;99.90
73939;DHT22;62291;47.554;8.504;2022-09-09T00:32:29;13.00;99.90
73939;DHT22;62291;47.554;8.504;2022-09-09T00:35:00;13.10;99.90
73939;DHT22;62291;47.554;8.504;2022-09-09T00:37:28;13.20;99.90
73939;DHT22;62291;47.554;8.504;2022-09-09T00:39:59;13.20;99.90
73939;DHT22;62291;47.554;8.504;2022-09-09T00:42:41;13.30;99.90
73939;DHT22;62291;47.554;8.504;2022-09-09T00:47:49;13.40;99.90
73939;DHT22;62291;47.554;8.504;2022-09-09T00:59:16;13.70;99.90
73939;DHT22;62291;47.554;8.504;2022-09-09T01:01:48;13.70;99.90
73939;DHT22;62291;47.554;8.504;2022-09-09T01:04:20;13.70;99.90
73939;DHT22;62291;47.554;8.504;2022-09-09T01:06:57;13.70;99.90
73939;DHT22;62291;47.554;8.504;2022-09-09T01:09:38;13.80;99.90
73939;DHT22;62291;47.554;8.504;2022-09-09T01:12:28;13.70;99.90
73939;DHT22;62291;47.554;8.504;2022-09-09T01:15:17;13.80;99.90
73939;DHT22;62291;47.554;8.504;2022-09-09T01:20:17;13.70;99.90
73939;DHT22;62291;47.554;8.504;2022-09-09T01:25:21;13.70;99.90
73939;DHT22;62291;47.554;8.504;2022-09-09T01:27:49;13.60;99.90
73939;DHT22;62291;47.554;8.504;2022-09-09T01:30:17;13.60;99.90
73939;DHT22;62291;47.554;8.504;2022-09-09T01:32:53;13.60;99.90
73939;DHT22;62291;47.554;8.504;2022-09-09T01:35:50;13.60;99.90
73939;DHT22;62291;47.554;8.504;2022-09-09T01:38:20;13.60;99.90
73939;DHT22;62291;47.554;8.504;2022-09-09T01:40:47;13.60;99.90
73939;DHT22;62291;47.554;8.504;2022-09-09T01:43:13;13.60;99.90
73939;DHT22;62291;47.554;8.504;2022-09-09T01:45:41;13.60;99.90
73939;DHT22;62291;47.554;8.504;2022-09-09T01:48:07;13.70;99.90
73939;DHT22;62291;47.554;8.504;2022-09-09T01:50:33;13.70;99.90
73939;DHT22;62291;47.554;8.504;2022-09-09T01:52:59;13.70;99.90
73939;DHT22;62291;47.554;8.504;2022-09-09T01:55:32;13.80;99.90
73939;DHT22;62291;47.554;8.504;2022-09-09T02:01:06;13.80;99.90
73939;DHT22;62291;47.554;8.504;2022-09-09T02:03:35;13.90;99.90
73939;DHT22;62291;47.554;8.504;2022-09-09T02:06:28;13.90;99.90
73939;DHT22;62291;47.554;8.504;2022-09-09T02:08:57;13.90;99.90
73939;DHT22;62291;47.554;8.504;2022-09-09T02:11:25;13.90;99.90
73939;DHT22;62291;47.554;8.504;2022-09-09T02:14:23;14.00;99.90
73939;DHT22;62291;47.554;8.504;2022-09-09T02:16:52;14.00;99.90
73939;DHT22;62291;47.554;8.504;2022-09-09T02:19:23;14.10;99.90
73939;DHT22;62291;47.554;8.504;2022-09-09T02:21:54;14.00;99.90
73939;DHT22;62291;47.554;8.504;2022-09-09T02:24:21;14.00;99.90
73939;DHT22;62291;47.554;8.504;2022-09-09T02:26:50;14.10;99.90
73939;DHT22;62291;47.554;8.504;2022-09-09T02:29:31;14.10;99.90
73939;DHT22;62291;47.554;8.504;2022-09-09T02:32:02;14.10;99.90
73939;DHT22;62291;47.554;8.504;2022-09-09T02:34:30;14.10;99.90
73939;DHT22;62291;47.554;8.504;2022-09-09T02:36:58;14.10;99.90
73939;DHT22;62291;47.554;8.504;2022-09-09T02:39:26;14.10;99.90
73939;DHT22;62291;47.554;8.504;2022-09-09T02:41:51;14.20;99.90
73939;DHT22;62291;47.554;8.504;2022-09-09T02:44:18;14.20;99.90
73939;DHT22;62291;47.554;8.504;2022-09-09T02:49:21;14.20;99.90
73939;DHT22;62291;47.554;8.504;2022-09-09T02:54:37;14.20;99.90
73939;DHT22;62291;47.554;8.504;2022-09-09T02:59:37;14.20;99.90
73939;DHT22;62291;47.554;8.504;2022-09-09T03:02:03;14.20;99.90
73939;DHT22;62291;47.554;8.504;2022-09-09T03:04:29;14.30;99.90
73939;DHT22;62291;47.554;8.504;2022-09-09T03:06:57;14.30;99.90
73939;DHT22;62291;47.554;8.504;2022-09-09T03:09:23;14.40;99.90
73939;DHT22;62291;47.554;8.504;2022-09-09T03:11:49;14.40;99.90
73939;DHT22;62291;47.554;8.504;2022-09-09T03:14:15;14.40;99.90
73939;DHT22;62291;47.554;8.504;2022-09-09T03:16:41;14.40;99.90
73939;DHT22;62291;47.554;8.504;2022-09-09T03:19:08;14.40;99.90
73939;DHT22;62291;47.554;8.504;2022-09-09T03:21:34;14.50;99.90
73939;DHT22;62291;47.554;8.504;2022-09-09T03:24:01;14.50;99.90
73939;DHT22;62291;47.554;8.504;2022-09-09T03:26:29;14.50;99.90
73939;DHT22;62291;47.554;8.504;2022-09-09T03:28:55;14.50;99.90
73939;DHT22;62291;47.554;8.504;2022-09-09T03:31:21;14.50;99.90
73939;DHT22;62291;47.554;8.504;2022-09-09T03:33:47;14.50;99.90
73939;DHT22;62291;47.554;8.504;2022-09-09T03:36:13;14.50;99.90
73939;DHT22;62291;47.554;8.504;2022-09-09T03:38:39;14.50;99.90
73939;DHT22;62291;47.554;8.504;2022-09-09T03:41:05;14.60;99.90
73939;DHT22;62291;47.554;8.504;2022-09-09T03:43:31;14.50;99.90
73939;DHT22;62291;47.554;8.504;2022-09-09T03:45:57;14.50;99.90
73939;DHT22;62291;47.554;8.504;2022-09-09T03:48:23;14.50;99.90
73939;DHT22;62291;47.554;8.504;2022-09-09T03:50:53;14.50;99.90
73939;DHT22;62291;47.554;8.504;2022-09-09T03:53:23;14.50;99.90
73939;DHT22;62291;47.554;8.504;2022-09-09T03:55:52;14.50;99.90
73939;DHT22;62291;47.554;8.504;2022-09-09T03:58:20;14.50;99.90
73939;DHT22;62291;47.554;8.504;2022-09-09T04:00:57;14.60;99.90
73939;DHT22;62291;47.554;8.504;2022-09-09T04:03:24;14.60;99.90
73939;DHT22;62291;47.554;8.504;2022-09-09T04:05:54;14.50;99.90
73939;DHT22;62291;47.554;8.504;2022-09-09T04:08:21;14.50;99.90
73939;DHT22;62291;47.554;8.504;2022-09-09T04:10:48;14.50;99.90
73939;DHT22;62291;47.554;8.504;2022-09-09T04:13:15;14.50;99.90
73939;DHT22;62291;47.554;8.504;2022-09-09T04:15:52;14.50;99.90
73939;DHT22;62291;47.554;8.504;2022-09-09T04:18:18;14.60;99.90
73939;DHT22;62291;47.554;8.504;2022-09-09T04:20:47;14.60;99.90
73939;DHT22;62291;47.554;8.504;2022-09-09T04:23:13;14.60;99.90
73939;DHT22;62291;47.554;8.504;2022-09-09T04:25:44;14.60;99.90
73939;DHT22;62291;47.554;8.504;2022-09-09T04:28:10;14.60;99.90
73939;DHT22;62291;47.554;8.504;2022-09-09T04:30:36;14.70;99.90
73939;DHT22;62291;47.554;8.504;2022-09-09T04:33:02;14.70;99.90
73939;DHT22;62291;47.554;8.504;2022-09-09T04:35:27;14.70;99.90
73939;DHT22;62291;47.554;8.504;2022-09-09T04:37:53;14.70;99.90
73939;DHT22;62291;47.554;8.504;2022-09-09T04:40:19;14.70;99.90
73939;DHT22;62291;47.554;8.504;2022-09-09T04:42:44;14.80;99.90
73939;DHT22;62291;47.554;8.504;2022-09-09T04:45:10;14.80;99.90
73939;DHT22;62291;47.554;8.504;2022-09-09T04:47:36;14.80;99.90
73939;DHT22;62291;47.554;8.504;2022-09-09T04:50:02;14.80;99.90
73939;DHT22;62291;47.554;8.504;2022-09-09T04:52:28;14.80;99.90
73939;DHT22;62291;47.554;8.504;2022-09-09T04:54:53;14.80;99.90
73939;DHT22;62291;47.554;8.504;2022-09-09T04:57:19;14.70;99.90
73939;DHT22;62291;47.554;8.504;2022-09-09T04:59:45;14.70;99.90
73939;DHT22;62291;47.554;8.504;2022-09-09T05:02:11;14.70;99.90
73939;DHT22;62291;47.554;8.504;2022-09-09T05:04:37;14.70;99.90
73939;DHT22;62291;47.554;8.504;2022-09-09T05:07:02;14.70;99.90
73939;DHT22;62291;47.554;8.504;2022-09-09T05:09:28;14.70;99.90
73939;DHT22;62291;47.554;8.504;2022-09-09T05:11:54;14.80;99.90
73939;DHT22;62291;47.554;8.504;2022-09-09T05:14:20;14.90;99.90
73939;DHT22;62291;47.554;8.504;2022-09-09T05:16:45;14.90;99.90
73939;DHT22;62291;47.554;8.504;2022-09-09T05:19:12;14.90;99.90
73939;DHT22;62291;47.554;8.504;2022-09-09T05:21:38;14.90;99.90
73939;DHT22;62291;47.554;8.504;2022-09-09T05:24:04;15.00;99.90
73939;DHT22;62291;47.554;8.504;2022-09-09T05:26:29;15.00;99.90
73939;DHT22;62291;47.554;8.504;2022-09-09T05:28:55;15.00;99.90
73939;DHT22;62291;47.554;8.504;2022-09-09T05:31:22;14.90;99.90
73939;DHT22;62291;47.554;8.504;2022-09-09T05:33:48;15.00;99.90
73939;DHT22;62291;47.554;8.504;2022-09-09T05:36:19;14.90;99.90
73939;DHT22;62291;47.554;8.504;2022-09-09T05:38:45;14.90;99.90
73939;DHT22;62291;47.554;8.504;2022-09-09T05:41:12;14.90;99.90
73939;DHT22;62291;47.554;8.504;2022-09-09T05:43:41;14.90;99.90
73939;DHT22;62291;47.554;8.504;2022-09-09T05:46:08;14.90;99.90
73939;DHT22;62291;47.554;8.504;2022-09-09T05:48:36;14.80;99.90
73939;DHT22;62291;47.554;8.504;2022-09-09T05:51:03;14.80;99.90
73939;DHT22;62291;47.554;8.504;2022-09-09T05:53:29;14.70;99.90
73939;DHT22;62291;47.554;8.504;2022-09-09T05:56:08;14.70;99.90
73939;DHT22;62291;47.554;8.504;2022-09-09T05:58:36;14.80;99.90
73939;DHT22;62291;47.554;8.504;2022-09-09T06:03:28;14.80;99.90
73939;DHT22;62291;47.554;8.504;2022-09-09T06:06:00;14.90;99.90
73939;DHT22;62291;47.554;8.504;2022-09-09T06:08:26;15.00;99.90
73939;DHT22;62291;47.554;8.504;2022-09-09T06:10:52;15.20;99.90
73939;DHT22;62291;47.554;8.504;2022-09-09T06:13:18;15.40;99.90
73939;DHT22;62291;47.554;8.504;2022-09-09T06:15:53;15.60;99.90
73939;DHT22;62291;47.554;8.504;2022-09-09T06:18:19;17.10;99.90
73939;DHT22;62291;47.554;8.504;2022-09-09T06:21:05;18.30;99.90
73939;DHT22;62291;47.554;8.504;2022-09-09T06:23:32;19.40;99.90
73939;DHT22;62291;47.554;8.504;2022-09-09T06:26:31;20.60;99.90
73939;DHT22;62291;47.554;8.504;2022-09-09T06:28:58;21.30;99.90
73939;DHT22;62291;47.554;8.504;2022-09-09T06:31:27;21.20;99.90
73939;DHT22;62291;47.554;8.504;2022-09-09T06:33:56;21.40;99.90
73939;DHT22;62291;47.554;8.504;2022-09-09T06:36:24;22.30;99.90
73939;DHT22;62291;47.554;8.504;2022-09-09T06:38:50;23.60;99.90
73939;DHT22;62291;47.554;8.504;2022-09-09T06:41:18;24.50;99.90
73939;DHT22;62291;47.554;8.504;2022-09-09T06:43:45;25.50;99.90
73939;DHT22;62291;47.554;8.504;2022-09-09T06:46:13;26.20;99.90
73939;DHT22;62291;47.554;8.504;2022-09-09T06:48:40;26.60;99.90
73939;DHT22;62291;47.554;8.504;2022-09-09T06:51:17;26.80;99.90
73939;DHT22;62291;47.554;8.504;2022-09-09T06:53:45;27.00;99.90
73939;DHT22;62291;47.554;8.504;2022-09-09T06:58:40;27.50;99.20
73939;DHT22;62291;47.554;8.504;2022-09-09T07:01:16;27.20;99.10
73939;DHT22;62291;47.554;8.504;2022-09-09T07:03:45;26.40;99.70
73939;DHT22;62291;47.554;8.504;2022-09-09T07:06:17;25.60;99.90
73939;DHT22;62291;47.554;8.504;2022-09-09T07:08:43;25.10;99.90
73939;DHT22;62291;47.554;8.504;2022-09-09T07:11:10;25.20;99.90
73939;DHT22;62291;47.554;8.504;2022-09-09T07:13:36;26.20;99.90
73939;DHT22;62291;47.554;8.504;2022-09-09T07:16:07;26.90;99.70
73939;DHT22;62291;47.554;8.504;2022-09-09T07:18:33;26.70;98.30
73939;DHT22;62291;47.554;8.504;2022-09-09T07:21:00;26.10;98.70
73939;DHT22;62291;47.554;8.504;2022-09-09T07:23:26;26.20;99.30
73939;DHT22;62291;47.554;8.504;2022-09-09T07:25:52;26.80;98.70
73939;DHT22;62291;47.554;8.504;2022-09-09T07:28:19;27.20;97.80
73939;DHT22;62291;47.554;8.504;2022-09-09T07:30:56;27.80;96.60
73939;DHT22;62291;47.554;8.504;2022-09-09T07:33:22;28.30;95.80
73939;DHT22;62291;47.554;8.504;2022-09-09T07:35:48;28.90;94.90
73939;DHT22;62291;47.554;8.504;2022-09-09T07:38:14;28.80;95.60
73939;DHT22;62291;47.554;8.504;2022-09-09T07:40:40;28.20;94.50
73939;DHT22;62291;47.554;8.504;2022-09-09T07:43:06;27.40;94.80
73939;DHT22;62291;47.554;8.504;2022-09-09T07:45:33;26.80;96.20
73939;DHT22;62291;47.554;8.504;2022-09-09T07:48:00;26.80;96.10
73939;DHT22;62291;47.554;8.504;2022-09-09T07:50:25;27.70;96.50
73939;DHT22;62291;47.554;8.504;2022-09-09T07:52:52;28.30;93.90
73939;DHT22;62291;47.554;8.504;2022-09-09T07:55:19;28.80;93.60
73939;DHT22;62291;47.554;8.504;2022-09-09T07:57:47;29.50;92.90
73939;DHT22;62291;47.554;8.504;2022-09-09T08:00:13;30.00;91.80
73939;DHT22;62291;47.554;8.504;2022-09-09T08:02:40;30.20;91.40
73939;DHT22;62291;47.554;8.504;2022-09-09T08:05:06;30.50;90.10
73939;DHT22;62291;47.554;8.504;2022-09-09T08:07:32;30.70;89.40
73939;DHT22;62291;47.554;8.504;2022-09-09T08:09:58;30.80;88.50
73939;DHT22;62291;47.554;8.504;2022-09-09T08:12:24;30.60;85.20
73939;DHT22;62291;47.554;8.504;2022-09-09T08:14:49;30.50;87.10
73939;DHT22;62291;47.554;8.504;2022-09-09T08:17:16;30.80;87.30
73939;DHT22;62291;47.554;8.504;2022-09-09T08:19:42;31.20;85.10
73939;DHT22;62291;47.554;8.504;2022-09-09T08:22:08;31.40;86.60
73939;DHT22;62291;47.554;8.504;2022-09-09T08:24:33;30.00;86.00
73939;DHT22;62291;47.554;8.504;2022-09-09T08:26:59;28.60;87.60
73939;DHT22;62291;47.554;8.504;2022-09-09T08:29:25;28.40;89.30
73939;DHT22;62291;47.554;8.504;2022-09-09T08:31:56;28.20;90.40
73939;DHT22;62291;47.554;8.504;2022-09-09T08:34:23;26.70;91.10
73939;DHT22;62291;47.554;8.504;2022-09-09T08:36:50;26.80;91.90
73939;DHT22;62291;47.554;8.504;2022-09-09T08:39:19;26.50;92.00
73939;DHT22;62291;47.554;8.504;2022-09-09T08:52:29;25.90;92.90
73939;DHT22;62291;47.554;8.504;2022-09-09T08:55:01;25.60;93.70
73939;DHT22;62291;47.554;8.504;2022-09-09T08:57:30;25.00;94.80
73939;DHT22;62291;47.554;8.504;2022-09-09T08:59:57;24.80;95.40
73939;DHT22;62291;47.554;8.504;2022-09-09T09:05:27;24.50;95.00
73939;DHT22;62291;47.554;8.504;2022-09-09T09:08:17;24.00;96.60
73939;DHT22;62291;47.554;8.504;2022-09-09T09:10:48;23.20;97.50
73939;DHT22;62291;47.554;8.504;2022-09-09T09:13:26;22.70;98.60
73939;DHT22;62291;47.554;8.504;2022-09-09T09:15:58;22.30;99.40
73939;DHT22;62291;47.554;8.504;2022-09-09T09:18:26;22.10;98.90
73939;DHT22;62291;47.554;8.504;2022-09-09T09:21:16;22.30;99.90
73939;DHT22;62291;47.554;8.504;2022-09-09T09:23:57;22.50;97.60
73939;DHT22;62291;47.554;8.504;2022-09-09T09:26:31;22.50;97.70
73939;DHT22;62291;47.554;8.504;2022-09-09T09:28:59;23.20;98.00
73939;DHT22;62291;47.554;8.504;2022-09-09T09:31:26;23.10;97.60
73939;DHT22;62291;47.554;8.504;2022-09-09T09:33:56;23.10;96.50
73939;DHT22;62291;47.554;8.504;2022-09-09T09:36:24;23.20;97.10
73939;DHT22;62291;47.554;8.504;2022-09-09T09:38:58;24.00;95.00
73939;DHT22;62291;47.554;8.504;2022-09-09T09:41:49;23.60;94.90
73939;DHT22;62291;47.554;8.504;2022-09-09T09:44:30;23.30;96.90
73939;DHT22;62291;47.554;8.504;2022-09-09T09:47:25;22.70;97.70
73939;DHT22;62291;47.554;8.504;2022-09-09T09:52:22;21.90;98.60
73939;DHT22;62291;47.554;8.504;2022-09-09T09:54:49;21.50;99.90
73939;DHT22;62291;47.554;8.504;2022-09-09T09:57:16;21.50;99.90
73939;DHT22;62291;47.554;8.504;2022-09-09T09:59:43;21.40;99.90
73939;DHT22;62291;47.554;8.504;2022-09-09T10:02:16;21.30;99.90
73939;DHT22;62291;47.554;8.504;2022-09-09T10:04:42;21.10;99.90
73939;DHT22;62291;47.554;8.504;2022-09-09T10:07:12;20.80;99.90
73939;DHT22;62291;47.554;8.504;2022-09-09T10:09:38;20.60;99.90
73939;DHT22;62291;47.554;8.504;2022-09-09T10:12:18;20.50;99.90
73939;DHT22;62291;47.554;8.504;2022-09-09T10:19:50;19.30;99.90
73939;DHT22;62291;47.554;8.504;2022-09-09T10:22:28;19.30;99.90
73939;DHT22;62291;47.554;8.504;2022-09-09T10:25:04;19.20;99.90
73939;DHT22;62291;47.554;8.504;2022-09-09T10:30:18;19.00;99.90
73939;DHT22;62291;47.554;8.504;2022-09-09T10:35:40;19.00;99.90
73939;DHT22;62291;47.554;8.504;2022-09-09T10:38:24;19.00;99.90
73939;DHT22;62291;47.554;8.504;2022-09-09T10:57:02;23.00;99.90
73939;DHT22;62291;47.554;8.504;2022-09-09T10:59:30;23.20;99.90
73939;DHT22;62291;47.554;8.504;2022-09-09T11:04:44;23.70;99.90
73939;DHT22;62291;47.554;8.504;2022-09-09T11:10:04;23.70;99.90
73939;DHT22;62291;47.554;8.504;2022-09-09T11:12:34;24.00;99.90
73939;DHT22;62291;47.554;8.504;2022-09-09T11:15:12;24.20;99.90
73939;DHT22;62291;47.554;8.504;2022-09-09T11:17:54;24.30;99.90
73939;DHT22;62291;47.554;8.504;2022-09-09T11:20:22;24.30;99.90
73939;DHT22;62291;47.554;8.504;2022-09-09T11:23:01;24.50;99.90
73939;DHT22;62291;47.554;8.504;2022-09-09T11:25:55;24.60;99.90
73939;DHT22;62291;47.554;8.504;2022-09-09T11:42:18;24.90;99.60
73939;DHT22;62291;47.554;8.504;2022-09-09T11:44:44;24.60;99.50
73939;DHT22;62291;47.554;8.504;2022-09-09T11:49:54;24.70;99.60
73939;DHT22;62291;47.554;8.504;2022-09-09T11:52:39;24.50;99.90
73939;DHT22;62291;47.554;8.504;2022-09-09T11:55:29;24.40;98.10
73939;DHT22;62291;47.554;8.504;2022-09-09T11:57:59;24.60;98.70
73939;DHT22;62291;47.554;8.504;2022-09-09T12:00:38;24.70;98.60
73939;DHT22;62291;47.554;8.504;2022-09-09T12:03:36;24.70;98.50
73939;DHT22;62291;47.554;8.504;2022-09-09T12:06:27;24.80;96.30
73939;DHT22;62291;47.554;8.504;2022-09-09T12:09:05;24.70;98.20
73939;DHT22;62291;47.554;8.504;2022-09-09T12:11:32;24.90;96.00
73939;DHT22;62291;47.554;8.504;2022-09-09T12:13:59;24.90;95.70
73939;DHT22;62291;47.554;8.504;2022-09-09T12:19:17;24.90;95.90
73939;DHT22;62291;47.554;8.504;2022-09-09T12:22:12;25.00;96.60
73939;DHT22;62291;47.554;8.504;2022-09-09T12:27:35;24.90;95.00
73939;DHT22;62291;47.554;8.504;2022-09-09T12:30:10;24.90;97.10
73939;DHT22;62291;47.554;8.504;2022-09-09T12:32:36;24.80;95.60
73939;DHT22;62291;47.554;8.504;2022-09-09T12:35:09;24.90;95.30
73939;DHT22;62291;47.554;8.504;2022-09-09T12:37:46;25.20;94.30
73939;DHT22;62291;47.554;8.504;2022-09-09T12:40:31;24.80;94.20
73939;DHT22;62291;47.554;8.504;2022-09-09T12:43:19;24.70;94.40
73939;DHT22;62291;47.554;8.504;2022-09-09T12:45:55;24.40;93.20
73939;DHT22;62291;47.554;8.504;2022-09-09T12:48:30;23.90;94.80
73939;DHT22;62291;47.554;8.504;2022-09-09T12:50:57;23.50;95.00
73939;DHT22;62291;47.554;8.504;2022-09-09T12:53:30;23.40;94.60
73939;DHT22;62291;47.554;8.504;2022-09-09T12:55:59;23.70;95.90
73939;DHT22;62291;47.554;8.504;2022-09-09T12:58:26;23.90;93.20
73939;DHT22;62291;47.554;8.504;2022-09-09T13:00:55;23.80;93.80
73939;DHT22;62291;47.554;8.504;2022-09-09T13:03:22;24.20;92.90
73939;DHT22;62291;47.554;8.504;2022-09-09T13:05:49;24.40;92.10
73939;DHT22;62291;47.554;8.504;2022-09-09T13:08:16;24.60;92.10
73939;DHT22;62291;47.554;8.504;2022-09-09T13:10:57;24.60;90.90
73939;DHT22;62291;47.554;8.504;2022-09-09T13:13:43;24.10;90.70
73939;DHT22;62291;47.554;8.504;2022-09-09T13:16:21;24.10;91.70
73939;DHT22;62291;47.554;8.504;2022-09-09T13:18:47;23.80;91.90
73939;DHT22;62291;47.554;8.504;2022-09-09T13:21:13;23.50;90.90
73939;DHT22;62291;47.554;8.504;2022-09-09T13:23:39;23.30;92.00
73939;DHT22;62291;47.554;8.504;2022-09-09T13:26:20;23.10;91.40
73939;DHT22;62291;47.554;8.504;2022-09-09T13:28:48;23.20;92.10
73939;DHT22;62291;47.554;8.504;2022-09-09T13:31:24;23.40;92.10
73939;DHT22;62291;47.554;8.504;2022-09-09T13:33:53;23.80;93.40
73939;DHT22;62291;47.554;8.504;2022-09-09T13:36:31;24.00;90.70
73939;DHT22;62291;47.554;8.504;2022-09-09T13:38:59;24.00;89.90
73939;DHT22;62291;47.554;8.504;2022-09-09T13:41:34;24.00;90.20
73939;DHT22;62291;47.554;8.504;2022-09-09T13:44:02;24.10;88.70
73939;DHT22;62291;47.554;8.504;2022-09-09T13:46:37;24.10;90.20
73939;DHT22;62291;47.554;8.504;2022-09-09T13:54:06;24.10;87.90
73939;DHT22;62291;47.554;8.504;2022-09-09T13:56:35;23.90;90.40
73939;DHT22;62291;47.554;8.504;2022-09-09T13:59:01;23.80;90.10
73939;DHT22;62291;47.554;8.504;2022-09-09T14:01:27;23.70;89.90
73939;DHT22;62291;47.554;8.504;2022-09-09T14:03:53;23.70;92.40
73939;DHT22;62291;47.554;8.504;2022-09-09T14:06:19;23.60;90.80
73939;DHT22;62291;47.554;8.504;2022-09-09T14:08:48;23.50;92.30
73939;DHT22;62291;47.554;8.504;2022-09-09T14:11:15;23.50;93.00
73939;DHT22;62291;47.554;8.504;2022-09-09T14:13:40;23.40;91.70
73939;DHT22;62291;47.554;8.504;2022-09-09T14:16:06;23.30;92.10
73939;DHT22;62291;47.554;8.504;2022-09-09T14:18:31;23.20;92.20
73939;DHT22;62291;47.554;8.504;2022-09-09T14:20:57;23.10;93.80
73939;DHT22;62291;47.554;8.504;2022-09-09T14:23:23;23.00;92.40
73939;DHT22;62291;47.554;8.504;2022-09-09T14:25:50;22.70;92.20
73939;DHT22;62291;47.554;8.504;2022-09-09T14:28:16;22.60;94.40
73939;DHT22;62291;47.554;8.504;2022-09-09T14:30:43;22.40;93.20
73939;DHT22;62291;47.554;8.504;2022-09-09T14:33:11;22.10;94.00
73939;DHT22;62291;47.554;8.504;2022-09-09T14:35:37;22.00;93.60
73939;DHT22;62291;47.554;8.504;2022-09-09T14:38:04;21.80;94.80
73939;DHT22;62291;47.554;8.504;2022-09-09T14:40:30;21.70;95.50
73939;DHT22;62291;47.554;8.504;2022-09-09T14:42:56;21.70;95.20
73939;DHT22;62291;47.554;8.504;2022-09-09T14:45:22;21.50;94.80
73939;DHT22;62291;47.554;8.504;2022-09-09T14:47:50;21.30;95.00
73939;DHT22;62291;47.554;8.504;2022-09-09T14:50:20;21.10;95.00
73939;DHT22;62291;47.554;8.504;2022-09-09T14:52:46;21.10;95.40
73939;DHT22;62291;47.554;8.504;2022-09-09T14:55:12;21.10;97.10
73939;DHT22;62291;47.554;8.504;2022-09-09T14:57:38;21.10;95.80
73939;DHT22;62291;47.554;8.504;2022-09-09T15:00:06;21.10;94.70
73939;DHT22;62291;47.554;8.504;2022-09-09T15:02:33;21.00;96.60
73939;DHT22;62291;47.554;8.504;2022-09-09T15:04:58;20.90;94.90
73939;DHT22;62291;47.554;8.504;2022-09-09T15:07:25;20.80;95.10
73939;DHT22;62291;47.554;8.504;2022-09-09T15:09:51;20.80;95.00
73939;DHT22;62291;47.554;8.504;2022-09-09T15:12:17;20.70;95.30
73939;DHT22;62291;47.554;8.504;2022-09-09T15:14:44;20.60;94.90
73939;DHT22;62291;47.554;8.504;2022-09-09T15:17:11;20.50;95.00
73939;DHT22;62291;47.554;8.504;2022-09-09T15:19:37;20.60;94.40
73939;DHT22;62291;47.554;8.504;2022-09-09T15:22:06;20.50;94.90
73939;DHT22;62291;47.554;8.504;2022-09-09T15:24:33;20.50;95.20
73939;DHT22;62291;47.554;8.504;2022-09-09T15:26:59;20.50;95.40
73939;DHT22;62291;47.554;8.504;2022-09-09T15:29:25;20.50;95.90
73939;DHT22;62291;47.554;8.504;2022-09-09T15:31:51;20.50;96.00
73939;DHT22;62291;47.554;8.504;2022-09-09T15:34:18;20.40;95.70
73939;DHT22;62291;47.554;8.504;2022-09-09T15:36:44;20.40;96.00
73939;DHT22;62291;47.554;8.504;2022-09-09T15:39:15;20.40;96.20
73939;DHT22;62291;47.554;8.504;2022-09-09T15:41:42;20.40;96.00
73939;DHT22;62291;47.554;8.504;2022-09-09T15:44:09;20.40;96.60
73939;DHT22;62291;47.554;8.504;2022-09-09T15:46:46;20.50;96.30
73939;DHT22;62291;47.554;8.504;2022-09-09T15:49:18;20.40;96.40
73939;DHT22;62291;47.554;8.504;2022-09-09T15:51:46;20.40;96.80
73939;DHT22;62291;47.554;8.504;2022-09-09T15:54:15;20.40;96.70
73939;DHT22;62291;47.554;8.504;2022-09-09T15:56:43;20.40;96.50
73939;DHT22;62291;47.554;8.504;2022-09-09T15:59:09;20.40;98.20
73939;DHT22;62291;47.554;8.504;2022-09-09T16:01:35;20.50;98.20
73939;DHT22;62291;47.554;8.504;2022-09-09T16:04:01;20.50;96.90
73939;DHT22;62291;47.554;8.504;2022-09-09T16:06:28;20.40;96.80
73939;DHT22;62291;47.554;8.504;2022-09-09T16:08:55;20.40;97.40
73939;DHT22;62291;47.554;8.504;2022-09-09T16:11:29;20.30;97.10
73939;DHT22;62291;47.554;8.504;2022-09-09T16:13:58;20.30;96.70
73939;DHT22;62291;47.554;8.504;2022-09-09T16:16:25;20.30;96.40
73939;DHT22;62291;47.554;8.504;2022-09-09T16:18:54;20.20;96.40
73939;DHT22;62291;47.554;8.504;2022-09-09T16:21:31;20.20;96.40
73939;DHT22;62291;47.554;8.504;2022-09-09T16:23:59;20.20;96.40
73939;DHT22;62291;47.554;8.504;2022-09-09T16:26:25;20.20;96.60
73939;DHT22;62291;47.554;8.504;2022-09-09T16:28:51;20.20;96.30
73939;DHT22;62291;47.554;8.504;2022-09-09T16:31:24;20.10;96.50
73939;DHT22;62291;47.554;8.504;2022-09-09T16:33:50;20.10;96.30
73939;DHT22;62291;47.554;8.504;2022-09-09T16:36:20;20.10;97.20
73939;DHT22;62291;47.554;8.504;2022-09-09T16:38:46;20.00;98.00
73939;DHT22;62291;47.554;8.504;2022-09-09T16:41:14;20.00;97.10
73939;DHT22;62291;47.554;8.504;2022-09-09T16:43:40;20.00;98.00
73939;DHT22;62291;47.554;8.504;2022-09-09T16:46:13;19.90;97.80
73939;DHT22;62291;47.554;8.504;2022-09-09T16:48:40;19.90;98.00
73939;DHT22;62291;47.554;8.504;2022-09-09T16:51:09;19.80;99.20
73939;DHT22;62291;47.554;8.504;2022-09-09T16:53:37;19.70;99.90
73939;DHT22;62291;47.554;8.504;2022-09-09T16:56:07;19.70;99.40
73939;DHT22;62291;47.554;8.504;2022-09-09T16:58:32;19.70;98.80
73939;DHT22;62291;47.554;8.504;2022-09-09T17:00:59;19.60;99.00
73939;DHT22;62291;47.554;8.504;2022-09-09T17:03:25;19.70;98.50
73939;DHT22;62291;47.554;8.504;2022-09-09T17:05:51;19.70;97.60
73939;DHT22;62291;47.554;8.504;2022-09-09T17:08:17;19.70;97.70
73939;DHT22;62291;47.554;8.504;2022-09-09T17:10:42;19.70;96.80
73939;DHT22;62291;47.554;8.504;2022-09-09T17:13:08;19.70;97.00
73939;DHT22;62291;47.554;8.504;2022-09-09T17:15:40;19.70;97.30
73939;DHT22;62291;47.554;8.504;2022-09-09T17:18:11;19.60;98.30
73939;DHT22;62291;47.554;8.504;2022-09-09T17:20:39;19.20;99.90
73939;DHT22;62291;47.554;8.504;2022-09-09T17:23:06;18.60;99.90
73939;DHT22;62291;47.554;8.504;2022-09-09T17:25:32;18.10;99.90
73939;DHT22;62291;47.554;8.504;2022-09-09T17:27:58;17.90;99.90
73939;DHT22;62291;47.554;8.504;2022-09-09T17:30:25;17.60;99.90
73939;DHT22;62291;47.554;8.504;2022-09-09T17:32:51;17.40;99.90
73939;DHT22;62291;47.554;8.504;2022-09-09T17:35:17;17.40;99.90
73939;DHT22;62291;47.554;8.504;2022-09-09T17:37:43;17.30;99.90
73939;DHT22;62291;47.554;8.504;2022-09-09T17:40:10;17.30;99.90
73939;DHT22;62291;47.554;8.504;2022-09-09T17:42:36;17.10;99.90
73939;DHT22;62291;47.554;8.504;2022-09-09T17:45:01;17.10;99.90
73939;DHT22;62291;47.554;8.504;2022-09-09T17:47:27;16.90;99.90
73939;DHT22;62291;47.554;8.504;2022-09-09T17:49:53;16.90;99.90